Latest Weather Observations for Viewbank

IDV60801

Issued at 8:31 pm EDT Tuesday 9 February 2016 (issued every 30 minutes, with the page automatically refreshed every 10 minutes)

About weather observations | Map of weather stations | Latest weather observations for VIC | Other Formats
Station Details ID: 086068 Name: VIEWBANK Lat: -37.74 Lon: 145.10 Height: 66.1 m
Data from the previous 72 hours. | See also: Recent months at Viewbank
Date/Time
EDT
Temp
°C
App
Temp
°C
Dew
Point
Rel
Hum
%
Delta-T
°C
Wind Press
QNH
hPa
Press
MSL
hPa
Rain
since 9 am
mm
Dir
 
Spd
km/h
Gust
km/h
Spd
kts
Gust
kts
09/08:30pm 21.2 21.0 14.6 66 3.9 SSW 9 17 5 9 1016.8 1016.6 0.0
09/08:00pm 22.1 21.3 15.2 65 4.1 WSW 13 20 7 11 1016.8 1016.6 0.0
09/07:30pm 23.3 21.7 15.1 60 4.9 WSW 17 24 9 13 1016.6 1016.4 0.0
09/07:00pm 24.4 23.2 15.1 56 5.6 WSW 15 20 8 11 1016.5 1016.2 0.0
09/06:30pm 24.7 23.0 14.8 54 5.9 SW 17 22 9 12 1016.5 1016.2 0.0
09/06:00pm 24.9 23.6 14.7 53 6.1 SW 15 24 8 13 1016.5 1016.2 0.0
09/05:30pm 24.8 22.6 14.3 52 6.2 SW 19 28 10 15 1016.7 1016.5 0.0
09/05:00pm 25.5 23.3 14.3 50 6.7 SW 19 28 10 15 1017.1 1016.9 0.0
09/04:30pm 25.6 23.8 14.4 50 6.7 SW 17 24 9 13 1017.3 1017.1 0.0
09/04:00pm 25.2 22.7 14.0 49 6.6 WSW 20 30 11 16 1017.6 1017.4 0.0
09/03:30pm 25.3 22.9 13.8 49 6.8 WSW 19 26 10 14 1017.9 1017.7 0.0
09/03:00pm 25.3 23.1 14.4 50 6.5 WSW 19 26 10 14 1018.2 1018.0 0.0
09/02:30pm 25.2 22.9 14.0 49 6.6 WSW 19 28 10 15 1018.7 1018.5 0.0
09/02:00pm 24.9 22.4 13.5 49 6.7 WSW 19 28 10 15 1019.0 1018.8 0.0
09/01:30pm 24.9 22.6 13.1 48 6.9 WSW 17 26 9 14 1019.3 1019.1 0.0
09/01:00pm 25.2 23.8 13.4 48 6.9 SW 13 24 7 13 1019.6 1019.4 0.0
09/12:30pm 24.7 24.0 12.0 45 7.3 SSW 7 15 4 8 1020.0 1019.8 0.0
09/12:00pm 23.3 21.8 12.0 49 6.4 S 11 19 6 10 1020.5 1020.3 0.0
09/11:30am 23.0 22.5 12.6 52 6.0 S 7 20 4 11 1020.9 1020.7 0.0
09/11:00am 21.7 20.0 12.3 55 5.3 SW 13 19 7 10 1021.1 1020.9 0.0
09/10:30am 20.6 19.6 12.3 59 4.7 S 9 20 5 11 1021.3 1021.1 0.0
09/10:00am 20.5 20.0 12.5 60 4.5 ESE 7 15 4 8 1021.5 1021.3 0.0
09/09:30am 19.9 19.3 12.4 62 4.2 SE 7 13 4 7 1021.6 1021.4 0.0
09/09:00am 19.3 18.3 12.3 64 3.9 SE 9 17 5 9 1021.9 1021.7 0.0
09/08:30am 18.0 17.3 12.0 68 3.3 SE 7 13 4 7 1021.9 1021.7 0.0
09/08:00am 17.4 17.2 11.9 70 3.0 SSE 4 11 2 6 1021.9 1021.7 0.0
09/07:30am 16.8 16.5 11.5 71 2.9 SSE 4 11 2 6 1021.7 1021.5 0.0
09/07:00am 16.4 15.1 11.1 71 2.8 SE 9 15 5 8 1021.5 1021.3 0.0
09/06:30am 16.9 16.3 11.6 71 2.9 SSE 6 13 3 7 1021.5 1021.3 0.0
09/06:00am 17.0 16.5 12.1 73 2.7 S 6 11 3 6 1021.3 1021.1 0.0
09/05:30am 17.1 16.1 12.2 73 2.7 SSW 9 13 5 7 1021.2 1021.0 0.0
09/05:00am 17.1 16.1 12.2 73 2.7 SSW 9 15 5 8 1021.0 1020.8 0.0
09/04:30am 17.2 15.8 12.3 73 2.7 SSW 11 17 6 9 1021.1 1020.9 0.0
09/04:00am 17.3 16.3 12.2 72 2.8 SSW 9 17 5 9 1021.2 1021.0 0.0
09/03:30am 17.4 15.7 12.3 72 2.8 SSW 13 19 7 10 1021.3 1021.1 0.0
09/03:00am 17.4 16.5 12.5 73 2.7 S 9 15 5 8 1021.5 1021.3 0.0
09/02:30am 17.8 17.0 12.9 73 2.7 SSW 9 17 5 9 1021.6 1021.4 0.0
09/02:00am 17.7 18.1 12.6 72 2.8 S 2 7 1 4 1021.7 1021.5 0.0
09/01:30am 17.6 17.6 12.5 72 2.8 SSW 4 7 2 4 1022.0 1021.8 0.0
09/01:00am 17.4 16.8 12.3 72 2.8 S 7 13 4 7 1022.4 1022.2 0.0
09/12:30am 17.7 16.4 12.6 72 2.8 SSW 11 15 6 8 1022.5 1022.3 0.0
09/12:00am 17.8 15.7 12.5 71 2.9 SW 15 22 8 12 1022.7 1022.5 0.0
 
Date/Time
EDT
Temp
°C
App
Temp
°C
Dew
Point
Rel
Hum
%
Delta-T
°C
Wind Press
QNH
hPa
Press
MSL
hPa
Rain
since 9 am
mm
Dir
 
Spd
km/h
Gust
km/h
Spd
kts
Gust
kts
08/11:30pm 17.5 16.2 12.6 73 2.7 SSW 11 20 6 11 1022.9 1022.7 0.0
08/11:00pm 17.3 16.5 12.8 75 2.5 SSW 9 13 5 7 1023.1 1022.9 0.0
08/10:30pm 17.7 16.9 13.0 74 2.6 SSW 9 15 5 8 1023.1 1022.9 0.0
08/10:00pm 18.1 17.0 13.0 72 2.9 SSW 11 19 6 10 1023.0 1022.8 0.0
08/09:30pm 18.7 16.9 12.2 66 3.6 SSW 13 20 7 11 1022.7 1022.5 0.0
08/09:00pm 19.1 18.5 12.4 65 3.7 S 7 13 4 7 1022.2 1022.0 0.0
08/08:30pm 19.7 18.0 13.6 68 3.5 SW 15 24 8 13 1021.9 1021.7 0.0
08/08:00pm 20.4 18.7 13.6 65 3.9 SW 15 22 8 12 1021.6 1021.4 0.0
08/07:30pm 21.1 19.0 13.5 62 4.4 SW 17 30 9 16 1021.2 1021.0 0.0
08/07:00pm 22.3 19.8 13.4 57 5.1 SW 19 28 10 15 1021.1 1020.9 0.0
08/06:30pm 23.2 20.8 12.8 52 6.0 SSW 17 30 9 16 1020.9 1020.7 0.0
08/06:00pm 23.9 22.4 13.2 51 6.2 SSW 13 28 7 15 1020.9 1020.7 0.0
08/05:30pm 23.6 20.9 13.5 53 5.9 SSW 20 32 11 17 1020.9 1020.7 0.0
08/05:00pm 23.8 21.3 13.6 52 5.9 SW 19 32 10 17 1020.9 1020.7 0.0
08/04:30pm 24.2 21.2 13.7 52 6.2 SW 22 35 12 19 1021.2 1021.0 0.0
08/04:00pm 24.4 21.7 13.6 51 6.3 SW 20 33 11 18 1021.3 1021.1 0.0
08/03:30pm 24.3 21.5 13.2 50 6.5 SW 20 30 11 16 1021.3 1021.1 0.0
08/03:00pm 24.9 22.3 13.8 50 6.5 SW 20 30 11 16 1021.5 1021.3 0.0
08/02:30pm 24.8 22.1 13.0 47 6.9 SW 19 30 10 16 1021.5 1021.3 0.0
08/02:00pm 23.9 21.4 12.2 48 6.7 WSW 17 28 9 15 1021.8 1021.6 0.0
08/01:30pm 23.4 21.3 12.4 50 6.3 SW 15 28 8 15 1021.9 1021.7 0.0
08/01:00pm 22.2 20.7 13.0 56 5.3 SSW 13 22 7 12 1022.3 1022.1 0.0
08/12:30pm 21.6 20.2 13.5 60 4.7 SSW 13 20 7 11 1022.5 1022.3 0.0
08/12:00pm 21.4 19.9 14.1 63 4.2 SSW 15 20 8 11 1022.6 1022.4 0.0
08/11:30am 21.1 19.1 13.8 63 4.2 SSW 17 22 9 12 1022.7 1022.5 0.0
08/11:00am 20.3 19.6 14.2 68 3.5 S 11 22 6 12 1022.7 1022.5 0.0
08/10:30am 19.9 18.9 14.7 72 3.0 SSW 13 20 7 11 1022.6 1022.4 0.0
08/10:00am 19.9 19.0 14.9 73 2.9 SW 13 20 7 11 1022.5 1022.3 0.0
08/09:30am 19.6 18.7 14.8 74 2.8 SSW 13 20 7 11 1022.3 1022.1 0.0
08/09:00am 19.5 19.2 15.4 77 2.4 SW 11 17 6 9 1022.1 1021.9 0.0
08/08:30am 19.3 19.1 15.6 79 2.2 SW 11 17 6 9 1021.8 1021.6 0.0
08/08:00am 19.0 19.2 15.7 81 2.0 SW 9 15 5 8 1021.6 1021.4 0.0
08/07:30am 18.8 19.1 16.0 84 1.7 SSW 9 13 5 7 1021.3 1021.1 0.0
08/07:00am 18.2 19.0 16.4 89 1.1 WSW 7 9 4 5 1021.2 1021.0 0.0
08/06:30am 17.9 18.6 16.2 90 1.0 S 7 9 4 5 1020.9 1020.7 0.0
08/06:00am 18.1 19.1 16.4 90 1.0 SSW 6 11 3 6 1020.6 1020.4 0.0
08/05:30am 18.1 18.9 16.3 89 1.1 SSW 7 9 4 5 1020.4 1020.2 0.0
08/05:00am 18.5 19.2 16.1 86 1.4 S 7 11 4 6 1020.3 1020.1 0.0
08/04:30am 18.8 19.6 16.4 86 1.4 SSW 7 13 4 7 1020.2 1020.0 0.0
08/04:00am 18.8 19.6 16.4 86 1.4 SW 7 9 4 5 1020.1 1019.9 0.0
08/03:30am 19.1 19.0 16.1 83 1.8 SSW 11 17 6 9 1020.2 1020.0 0.0
08/03:00am 19.2 19.8 16.8 86 1.4 SW 9 15 5 8 1020.3 1020.1 0.0
08/02:30am 19.3 19.1 16.7 85 1.6 SW 13 17 7 9 1020.4 1020.2 0.0
08/02:00am 19.3 18.7 16.7 85 1.6 SSW 15 22 8 12 1020.5 1020.3 0.0
08/01:30am 19.4 19.4 17.2 87 1.3 SW 13 19 7 10 1020.4 1020.2 0.0
08/01:00am 19.6 20.2 17.7 89 1.2 SSW 11 17 6 9 1020.2 1020.0 0.0
08/12:30am 19.6 20.0 18.1 91 0.9 SW 13 20 7 11 1020.0 1019.8 0.0
08/12:00am 19.6 21.1 18.8 95 0.5 SW 9 15 5 8 1019.9 1019.7 0.0
 
Date/Time
EDT
Temp
°C
App
Temp
°C
Dew
Point
Rel
Hum
%
Delta-T
°C
Wind Press
QNH
hPa
Press
MSL
hPa
Rain
since 9 am
mm
Dir
 
Spd
km/h
Gust
km/h
Spd
kts
Gust
kts
07/11:30pm 19.6 20.6 18.6 94 0.6 WSW 11 17 6 9 1019.8 1019.6 0.0
07/11:00pm 19.7 21.0 18.4 92 0.8 WSW 9 13 5 7 1019.6 1019.4 0.0
07/10:30pm 20.0 21.1 18.1 89 1.2 WSW 9 15 5 8 1019.5 1019.3 0.0
07/10:00pm 20.4 20.7 18.0 86 1.5 SW 13 19 7 10 1019.4 1019.2 0.0
07/09:30pm 21.1 21.0 17.9 82 2.0 WSW 15 20 8 11 1019.2 1019.0 0.0
07/09:00pm 22.9 21.9 14.7 60 4.9 WSW 13 19 7 10 1018.6 1018.4 0.0
07/08:30pm 24.5 22.1 11.5 44 7.4 SSW 15 22 8 12 1017.8 1017.6 0.0
07/08:00pm 25.4 23.4 12.6 45 7.4 SSW 15 24 8 13 1017.3 1017.1 0.0
07/07:30pm 26.7 24.9 13.4 43 7.8 SSW 15 24 8 13 1016.7 1016.5 0.0
07/07:00pm 26.9 25.4 15.3 49 7.1 SW 17 22 9 12 1016.2 1015.9 0.0
07/06:30pm 27.4 25.4 15.4 48 7.3 SW 20 28 11 15 1015.9 1015.6 0.0
07/06:00pm 29.2 27.6 15.0 42 8.7 SW 17 24 9 13 1015.5 1015.2 0.0
07/05:30pm 30.7 28.0 13.5 35 10.3 SSW 20 33 11 18 1015.2 1014.9 0.0
07/05:00pm 32.3 29.8 13.5 32 11.4 SSW 19 26 10 14 1015.1 1014.8 0.0
07/04:30pm 31.5 29.4 13.7 33 10.8 S 17 26 9 14 1014.9 1014.6 0.0
07/04:00pm 32.4 30.8 15.0 35 10.8 SW 17 24 9 13 1014.9 1014.6 0.0
07/03:30pm 32.1 30.5 15.1 35 10.5 SSW 17 22 9 12 1015.1 1014.8 0.0
07/03:00pm 31.2 29.2 15.6 39 9.7 SSW 20 28 11 15 1015.4 1015.1 0.0
07/02:30pm 33.0 31.5 16.4 37 10.5 SW 19 24 10 13 1015.5 1015.2 0.0
07/02:00pm 33.3 32.3 13.4 30 12.0 SW 11 20 6 11 1015.5 1015.2 0.0
07/01:30pm 32.1 31.1 14.7 35 10.7 SW 13 20 7 11 1015.7 1015.4 0.0
07/01:00pm 32.3 31.8 14.9 35 10.7 SSW 11 20 6 11 1016.0 1015.7 0.0
07/12:30pm 31.1 30.9 14.7 37 10.0 WSW 9 17 5 9 1016.3 1016.0 0.0
07/12:00pm 30.4 30.0 15.3 40 9.3 SSW 11 19 6 10 1016.6 1016.4 0.0
07/11:30am 30.2 29.4 15.1 40 9.3 WNW 13 19 7 10 1016.8 1016.6 0.0
07/11:00am 29.3 27.9 12.3 35 10.0 NNW 11 22 6 12 1017.0 1016.8 0.0
07/10:30am 28.8 27.2 12.7 37 9.5 NW 13 22 7 12 1017.2 1017.0 0.0
07/10:00am 27.9 26.7 12.7 39 8.9 NNW 11 19 6 10 1017.0 1016.8 0.0
07/09:30am 25.7 26.0 15.1 52 6.4 E 7 13 4 7 1016.8 1016.6 0.0
07/09:00am 22.7 23.2 15.0 61 4.6 E 6 9 3 5 1016.9 1016.7 0.0
07/08:30am 20.4 20.7 14.5 69 3.4 ENE 6 9 3 5 1016.7 1016.5 0.0
07/08:00am 19.1 19.8 14.4 74 2.7 ENE 4 7 2 4 1016.3 1016.0 0.0
07/07:30am 18.1 19.5 14.4 79 2.1 CALM 0 0 0 0 1016.0 1015.7 0.0
07/07:00am 17.1 18.4 14.2 83 1.7 CALM 0 0 0 0 1015.8 1015.5 0.0
07/06:30am 17.2 18.5 14.1 82 1.8 CALM 0 2 0 1 1015.4 1015.1 0.0
07/06:00am 16.9 17.0 14.4 85 1.4 ENE 7 9 4 5 1015.3 1015.0 0.0
07/05:30am 17.1 18.1 14.4 84 1.6 ENE 2 6 1 3 1015.1 1014.8 0.0
07/05:00am 17.7 19.1 14.4 81 1.9 CALM 0 2 0 1 1015.0 1014.7 0.0
07/04:30am 17.5 17.8 14.6 83 1.7 ENE 6 11 3 6 1015.0 1014.7 0.0
07/04:00am 17.9 18.0 14.4 80 2.0 NE 7 9 4 5 1014.9 1014.6 0.0
07/03:30am 19.1 20.4 14.1 73 2.9 CALM 0 0 0 0 1014.9 1014.6 0.0
07/03:00am 19.7 21.1 14.3 71 3.1 CALM 0 6 0 3 1014.8 1014.5 0.0
07/02:30am 20.0 21.5 14.6 71 3.2 CALM 0 0 0 0 1014.9 1014.6 0.0
07/02:00am 21.1 22.0 14.0 64 4.1 NW 2 9 1 5 1015.0 1014.7 0.0
07/01:30am 21.5 22.1 14.2 63 4.3 NNE 4 9 2 5 1015.1 1014.8 0.0
07/01:00am 22.3 22.3 14.2 60 4.7 NNE 7 9 4 5 1015.1 1014.8 0.0
07/12:30am 23.5 24.7 13.9 55 5.6 CALM 0 6 0 3 1015.1 1014.8 0.0
07/12:00am 23.4 24.6 13.8 54 5.6 CALM 0 0 0 0 1014.9 1014.6 0.0
 
Date/Time
EDT
Temp
°C
App
Temp
°C
Dew
Point
Rel
Hum
%
Delta-T
°C
Wind Press
QNH
hPa
Press
MSL
hPa
Rain
since 9 am
mm
Dir
 
Spd
km/h
Gust
km/h
Spd
kts
Gust
kts
06/11:30pm 24.3 25.0 13.5 51 6.3 E 2 6 1 3 1014.8 1014.5 0.0
06/11:00pm 24.6 25.2 13.2 49 6.6 ENE 2 7 1 4 1014.8 1014.5 0.0
06/10:30pm 25.3 26.3 13.2 47 7.1 CALM 0 6 0 3 1014.7 1014.4 0.0
06/10:00pm 26.3 26.0 12.7 43 7.9 E 6 11 3 6 1014.4 1014.1 0.0
06/09:30pm 26.8 26.0 12.8 42 8.2 E 9 13 5 7 1013.9 1013.6 0.0
06/09:00pm 27.2 26.0 12.8 41 8.4 ENE 11 15 6 8 1013.8 1013.5 0.0

Other Formats:

Comma delimited format used in spreadsheet applications
http://www.bom.gov.au/fwo/IDV60801/IDV60801.95874.axf

JavaScript Object Notation format (JSON) in row-major order
http://www.bom.gov.au/fwo/IDV60801/IDV60801.95874.json